Latest Weather Observations for North Head

IDN60901

Issued at 1:12 am EDT Friday 30 January 2015 (issued every 10 minutes, with the page automatically refreshed every 10 minutes)

About weather observations | Map of Sydney area stations | Latest observations for Sydney area | Other Formats
Station Details ID: 066197 Name: NORTH HEAD Lat: -33.82 Lon: 151.30 Height: 90.0 m
Data from the previous 72 hours. | See also: Recent months for locations in New South Wales
Date/Time
EDT
Tmp

°C
App
Tmp
°C
Dew
Point
°C
Rel
Hum
%
Delta-T

°C
Wind Press
QNH
hPa
Press
MSL
hPa
Rain
since
9 am
mm
Dir
 
Spd
km/h
Gust
km/h
Spd
kts
Gust
kts
30/01:00am - - - - - WSW 17 28 9 15 - - -
30/12:30am - - - - - WSW 19 30 10 16 - - -
30/12:00am - - - - - SW 19 32 10 17 - - -
 
Date/Time
EDT
Tmp

°C
App
Tmp
°C
Dew
Point
°C
Rel
Hum
%
Delta-T

°C
Wind Press
QNH
hPa
Press
MSL
hPa
Rain
since
9 am
mm
Dir
 
Spd
km/h
Gust
km/h
Spd
kts
Gust
kts
29/11:30pm - - - - - SW 19 33 10 18 - - -
29/11:00pm - - - - - SSW 24 33 13 18 - - -
29/10:30pm - - - - - SSW 22 41 12 22 - - -
29/10:00pm - - - - - SSW 26 43 14 23 - - -
29/09:30pm - - - - - SSW 20 35 11 19 - - -
29/09:02pm - - - - - SSW 28 48 15 26 - - -
29/09:00pm - - - - - SSW 28 43 15 23 - - -
29/08:30pm - - - - - S 32 56 17 30 - - -
29/08:00pm - - - - - S 32 52 17 28 - - -
29/07:30pm - - - - - S 37 56 20 30 - - -
29/07:02pm - - - - - S 32 50 17 27 - - -
29/07:00pm - - - - - S 33 50 18 27 - - -
29/06:40pm - - - - - S 28 48 15 26 - - -
29/06:30pm - - - - - S 30 46 16 25 - - -
29/06:00pm - - - - - S 33 52 18 28 - - -
29/05:30pm - - - - - S 39 59 21 32 - - -
29/05:00pm - - - - - S 35 56 19 30 - - -
29/04:39pm - - - - - S 33 54 18 29 - - -
29/04:30pm - - - - - S 35 52 19 28 - - -
29/04:09pm - - - - - S 30 48 16 26 - - -
29/04:00pm - - - - - S 30 48 16 26 - - -
29/03:30pm - - - - - S 32 56 17 30 - - -
29/03:00pm - - - - - S 32 54 17 29 - - -
29/02:35pm - - - - - S 37 56 20 30 - - -
29/02:30pm - - - - - S 37 56 20 30 - - -
29/02:08pm - - - - - S 30 48 16 26 - - -
29/02:00pm - - - - - S 32 48 17 26 - - -
29/01:30pm - - - - - S 28 50 15 27 - - -
29/01:00pm - - - - - SSW 22 43 12 23 - - -
29/12:30pm - - - - - S 22 41 12 22 - - -
29/12:00pm - - - - - SSW 24 41 13 22 - - -
29/11:30am - - - - - SSW 22 39 12 21 - - -
29/11:00am - - - - - SSW 22 41 12 22 - - -
29/10:30am - - - - - SSW 22 39 12 21 - - -
29/10:00am - - - - - SW 22 33 12 18 - - -
29/09:30am - - - - - SW 22 37 12 20 - - -
29/09:00am - - - - - SW 24 39 13 21 - - -
29/08:30am - - - - - SW 22 43 12 23 - - -
29/08:00am - - - - - SW 22 35 12 19 - - -
29/07:30am - - - - - SW 17 28 9 15 - - -
29/07:00am - - - - - SW 19 26 10 14 - - -
29/06:30am - - - - - SW 19 28 10 15 - - -
29/06:00am - - - - - WSW 17 26 9 14 - - -
29/05:30am - - - - - WSW 19 28 10 15 - - -
29/05:00am - - - - - WSW 20 30 11 16 - - -
29/04:30am - - - - - WSW 19 30 10 16 - - -
29/04:00am - - - - - WSW 17 30 9 16 - - -
29/03:30am - - - - - SW 22 37 12 20 - - -
29/03:00am - - - - - SW 19 30 10 16 - - -
29/02:30am - - - - - SW 20 35 11 19 - - -
29/02:00am - - - - - SSW 20 37 11 20 - - -
29/01:30am - - - - - SSW 20 35 11 19 - - -
29/01:00am - - - - - SW 19 32 10 17 - - -
29/12:30am - - - - - SW 17 30 9 16 - - -
29/12:00am - - - - - SW 17 26 9 14 - - -
 
Date/Time
EDT
Tmp

°C
App
Tmp
°C
Dew
Point
°C
Rel
Hum
%
Delta-T

°C
Wind Press
QNH
hPa
Press
MSL
hPa
Rain
since
9 am
mm
Dir
 
Spd
km/h
Gust
km/h
Spd
kts
Gust
kts
28/11:30pm - - - - - SW 19 30 10 16 - - -
28/11:00pm - - - - - SW 19 28 10 15 - - -
28/10:30pm - - - - - SW 17 26 9 14 - - -
28/10:00pm - - - - - SW 20 30 11 16 - - -
28/09:30pm - - - - - SW 22 32 12 17 - - -
28/09:00pm - - - - - SSW 17 32 9 17 - - -
28/08:30pm - - - - - SSW 17 30 9 16 - - -
28/08:00pm - - - - - SW 15 26 8 14 - - -
28/07:30pm - - - - - SSW 19 28 10 15 - - -
28/07:00pm - - - - - SSE 28 44 15 24 - - -
28/06:58pm - - - - - SSE 30 48 16 26 - - -
28/06:51pm - - - - - SSE 26 48 14 26 - - -
28/06:30pm - - - - - S 17 28 9 15 - - -
28/06:00pm - - - - - S 15 33 8 18 - - -
28/05:30pm - - - - - S 28 44 15 24 - - -
28/05:00pm - - - - - SW 7 19 4 10 - - -
28/04:30pm - - - - - S 7 13 4 7 - - -
28/04:00pm - - - - - SE 13 22 7 12 - - -
28/03:30pm - - - - - SW 13 22 7 12 - - -
28/03:00pm - - - - - W 7 9 4 5 - - -
28/02:30pm - - - - - SSE 17 30 9 16 - - -
28/02:00pm - - - - - SSE 13 19 7 10 - - -
28/01:30pm - - - - - SSE 11 15 6 8 - - -
28/01:00pm - - - - - S 15 26 8 14 - - -
28/12:30pm - - - - - SE 22 37 12 20 - - -
28/12:00pm - - - - - SSE 22 33 12 18 - - -
28/11:30am - - - - - SSE 22 46 12 25 - - -
28/11:00am - - - - - SSE 28 43 15 23 - - -
28/10:30am - - - - - SSE 20 35 11 19 - - -
28/10:00am - - - - - SSE 28 43 15 23 - - -
28/09:30am - - - - - S 22 32 12 17 - - -
28/09:00am - - - - - S 20 32 11 17 - - -
28/08:30am - - - - - SSE 22 37 12 20 - - -
28/08:00am - - - - - SSE 22 33 12 18 - - -
28/07:30am - - - - - WSW 11 17 6 9 - - -
28/07:00am - - - - - WSW 9 13 5 7 - - -
28/06:30am - - - - - SW 11 17 6 9 - - -
28/06:00am - - - - - SW 11 17 6 9 - - -
28/05:30am - - - - - SSE 22 33 12 18 - - -
28/05:00am - - - - - SSE 20 32 11 17 - - -
28/04:30am - - - - - SSE 24 37 13 20 - - -
28/04:00am - - - - - WNW 7 11 4 6 - - -
28/03:30am - - - - - E 7 15 4 8 - - -
28/03:00am - - - - - SE 15 26 8 14 - - -
28/02:30am - - - - - E 20 41 11 22 - - -
28/02:13am - - - - - ESE 28 46 15 25 - - -
28/02:00am - - - - - SE 15 24 8 13 - - -
28/01:30am - - - - - SSE 9 24 5 13 - - -
28/01:00am - - - - - WNW 7 11 4 6 - - -
28/12:30am - - - - - NE 9 17 5 9 - - -
28/12:00am - - - - - W 7 9 4 5 - - -
 
Date/Time
EDT
Tmp

°C
App
Tmp
°C
Dew
Point
°C
Rel
Hum
%
Delta-T

°C
Wind Press
QNH
hPa
Press
MSL
hPa
Rain
since
9 am
mm
Dir
 
Spd
km/h
Gust
km/h
Spd
kts
Gust
kts
27/11:30pm - - - - - NE 4 11 2 6 - - -
27/11:00pm - - - - - NNW 6 7 3 4 - - -
27/10:30pm - - - - - WNW 4 9 2 5 - - -
27/10:00pm - - - - - SE 4 6 2 3 - - -
27/09:30pm - - - - - ESE 6 7 3 4 - - -
27/09:00pm - - - - - E 11 19 6 10 - - -
27/08:30pm - - - - - ESE 20 30 11 16 - - -
27/08:00pm - - - - - SE 17 30 9 16 - - -
27/07:30pm - - - - - SSE 15 24 8 13 - - -
27/07:00pm - - - - - SSE 6 9 3 5 - - -
27/06:30pm - - - - - SSE 20 32 11 17 - - -
27/06:00pm - - - - - SE 7 15 4 8 - - -
27/05:30pm - - - - - ESE 11 15 6 8 - - -
27/05:00pm - - - - - ESE 7 11 4 6 - - -
27/04:30pm - - - - - NE 4 9 2 5 - - -
27/04:00pm - - - - - E 13 17 7 9 - - -
27/03:30pm - - - - - E 19 26 10 14 - - -
27/03:00pm - - - - - ESE 13 20 7 11 - - -
27/02:30pm - - - - - ESE 13 24 7 13 - - -
27/02:00pm - - - - - E 17 26 9 14 - - -
27/01:30pm - - - - - E 17 24 9 13 - - -
27/01:00pm - - - - - ENE 15 24 8 13 - - -
27/12:30pm - - - - - ENE 11 19 6 10 - - -
27/12:00pm - - - - - E 17 24 9 13 - - -
27/11:30am - - - - - E 13 22 7 12 - - -
27/11:00am - - - - - ESE 19 26 10 14 - - -
27/10:30am - - - - - ESE 22 28 12 15 - - -
27/10:00am - - - - - ESE 20 30 11 16 - - -
27/09:30am - - - - - ESE 30 41 16 22 - - -
27/09:00am - - - - - ESE 24 39 13 21 - - -
27/08:30am - - - - - E 22 32 12 17 - - -
27/08:00am - - - - - ESE 17 32 9 17 - - -
27/07:30am - - - - - SE 17 28 9 15 - - -
27/07:00am - - - - - SSE 19 26 10 14 - - -
27/06:30am - - - - - S 19 28 10 15 - - -
27/06:00am - - - - - SSE 17 24 9 13 - - -
27/05:30am - - - - - S 13 20 7 11 - - -
27/05:00am - - - - - S 13 19 7 10 - - -
27/04:30am - - - - - SSE 6 9 3 5 - - -
27/04:00am - - - - - SE 13 24 7 13 - - -
27/03:30am - - - - - ESE 17 24 9 13 - - -
27/03:00am - - - - - ESE 24 33 13 18 - - -
27/02:30am - - - - - ESE 32 39 17 21 - - -
27/02:00am - - - - - ESE 32 43 17 23 - - -
27/01:30am - - - - - ESE 32 44 17 24 - - -

Latest Capital City Observations: Canberra | Sydney | Melbourne | Brisbane | Adelaide | Perth | Hobart | Darwin

Other Formats:

Comma delimited format used in spreadsheet applications
http://www.bom.gov.au/fwo/IDN60901/IDN60901.95768.axf

JavaScript Object Notation format (JSON) in row-major order
http://www.bom.gov.au/fwo/IDN60901/IDN60901.95768.json